^^

Meteo Aereoporti Centro-Italia

 

 
LIRZ - Perugia S.Egidio (208 m.)
Dati ricevuti: 20/08/2017 08:50
Poco nuvoloso
Poco nuvoloso
 Vento da direzione variabile
Vento: direzione variabile 4 km/h
TEMPERATURA: 25°C
P.to di Rugiada: 19°C
Umidità: 69%
Pressione: 1014 hPa
Nuvole: Poco nuvoloso
Visibilità: 10 km
Dettagli Nuvole: Poco nuvoloso 1219 m
2017/08/20 06:50 LIRZ 200650Z VRB02KT 9999 SCT040 25/19 Q1014
 
LIPY - Ancona Falconara (12 m.)
Dati ricevuti: 20/08/2017 08:50
Poco nuvoloso
Poco nuvoloso
 Vento da NNW
Vento: NNW 11 km/h
TEMPERATURA: 26°C
P.to di Rugiada: 18°C
Umidità: 61%
Pressione: 1013 hPa
Nuvole: Poco nuvoloso
Visibilità: 10 km
Dettagli Nuvole: Poco nuvoloso 762 m
2017/08/20 06:50 LIPY 200650Z 33006KT 290V010 9999 SCT025 26/18 Q1013
 
LIPR - Rimini Miramare (12 m.)
Dati ricevuti: 20/08/2017 09:15
Poco nuvoloso
Poco nuvoloso
 Vento da W
Vento: W 19 km/h
TEMPERATURA: 24°C
P.to di Rugiada: 19°C
Umidità: 74%
Pressione: 1015 hPa
Nuvole: Poco nuvoloso
Visibilità: 10 km
Dettagli Nuvole: Qualche nuvola 610 m
Poco nuvoloso 1524 m
2017/08/20 07:15 LIPR 200715Z 27010KT 9999 FEW020 SCT050 24/19 Q1015
 
LIRF - Roma Fiumicino (2 m.)
Dati ricevuti: 20/08/2017 09:20
Qualche nuvola
Qualche nuvola
 Vento da SSE
Vento: SSE 11 km/h
TEMPERATURA: 27°C
Indice di Calore: 28°C
P.to di Rugiada: 19°C
Umidità: 62%
Pressione: 1013 hPa
Nuvole: Qualche nuvola
Visibilità: 10 km
Dettagli Nuvole: Qualche nuvola 610 m
2017/08/20 07:20 LIRF 200720Z 16006KT 120V220 9999 FEW020 27/19 Q1013 NOSIG
 
LIRA - Roma Ciampino (129 m.)
Dati ricevuti: 20/08/2017 09:20
Poco nuvoloso
Poco nuvoloso
 Vento da S
Vento: S 13 km/h
TEMPERATURA: 26°C
P.to di Rugiada: 20°C
Umidità: 70%
Pressione: 1014 hPa
Nuvole: Poco nuvoloso
Visibilità: 10 km
Dettagli Nuvole: Poco nuvoloso 610 m
2017/08/20 07:20 LIRA 200720Z 19007KT 160V220 9999 SCT020 26/20 Q1014
 
LIRU - Roma Urbe (17 m.)
Dati ricevuti: 20/08/2017 08:50
Qualche nuvola
Qualche nuvola
 Vento da direzione variabile
Vento: direzione variabile 4 km/h
TEMPERATURA: 26°C
P.to di Rugiada: 18°C
Umidità: 61%
Pressione: 1013 hPa
Nuvole: Qualche nuvola
Visibilità: 10 km
Dettagli Nuvole: Qualche nuvola 914 m
2017/08/20 06:50 LIRU 200650Z VRB02KT 9999 FEW030 26/18 Q1013
 
LIVF - Frontone (570 m.)
Dati ricevuti: 20/08/2017 01:55
Dati non aggiornati
Qualche nuvola
Qualche nuvola
 Vento da WSW
Vento: WSW 15 km/h
TEMPERATURA: 23°C
P.to di Rugiada: 19°C
Umidità: 78%
Pressione: 1015 hPa
Nuvole: Qualche nuvola
Visibilità: 10 km
Dettagli Nuvole: Qualche nuvola 914 m
2017/08/19 23:55 LIVF 192355Z 24008KT 9999 FEW030 23/19 Q1015
 
LIRQ - Firenze Peretola (40 m.)
Dati ricevuti: 20/08/2017 09:20
Qualche nuvola
Qualche nuvola
 Vento da direzione variabile
Vento: direzione variabile 4 km/h
TEMPERATURA: 25°C
P.to di Rugiada: 14°C
Umidità: 51%
Pressione: 1015 hPa
Nuvole: Qualche nuvola
Visibilità: 10 km
Dettagli Nuvole: Qualche nuvola 1829 m
2017/08/20 07:20 LIRQ 200720Z VRB02KT 9999 FEW060 25/14 Q1015
 
LIBP - Pescara (10 m.)
Dati ricevuti: 20/08/2017 08:50
Qualche nuvola
Qualche nuvola
 Vento da NNW
Vento: NNW 13 km/h
TEMPERATURA: 28°C
Indice di Calore: 29°C
P.to di Rugiada: 20°C
Umidità: 62%
Pressione: 1013 hPa
Nuvole: Qualche nuvola
Visibilità: 10 km
Dettagli Nuvole: Qualche nuvola 762 m
2017/08/20 06:50 LIBP 200650Z 34007KT 300V010 9999 FEW025 28/20 Q1013
 
LIRV - Viterbo (300 m.)
Dati ricevuti: 19/08/2017 19:55
Dati non aggiornati
Sereno
Sereno
 Vento da WSW
Vento: WSW 19 km/h
TEMPERATURA: 26°C
P.to di Rugiada: 18°C
Umidità: 61%
Pressione: 1015 hPa
Condizioni generali: Sereno
Visibilità: oltre 10 km
2017/08/19 17:55 LIRV 191755Z 25010KT CAVOK 26/18 Q1015
 
LIQN - Rieti (389 m.)
Dati ricevuti: 19/08/2017 19:50
Dati non aggiornati
Sereno
Sereno
 Vento da SSE
Vento: SSE 13 km/h
TEMPERATURA: 28°C
Indice di Calore: 28°C
P.to di Rugiada: 14°C
Umidità: 42%
Pressione: 1014 hPa
Condizioni generali: Sereno
Visibilità: oltre 10 km
2017/08/19 17:50 LIQN 191750Z 15007KT CAVOK 28/14 Q1014
 
LIRG - Guidonia -RM- (88 m.)
Dati ricevuti: 18/08/2017 19:55
Dati non aggiornati
Sereno
Sereno
 Vento da WSW
Vento: WSW 7 km/h
TEMPERATURA: 30°C
Indice di Calore: 31°C
P.to di Rugiada: 19°C
Umidità: 52%
Pressione: 1015 hPa
Condizioni generali: Sereno
Visibilità: oltre 10 km
2017/08/18 17:55 LIRG 181755Z 24004KT CAVOK 30/19 Q1015
 
LIRK - Terminillo -RI-(1874 m.)
Dati ricevuti: 20/08/2017 08:55

 Vento da W
Vento: W 4 km/h
2017/08/20 06:55 LIRK 200655Z AUTO 26002KT //// ///// Q////
 
LIPK - Forlì (27 m.)
Dati ricevuti: 11/08/2017 17:50
Dati non aggiornati
Qualche nuvola
Qualche nuvola
 Vento da W
Vento: W 22 km/h
TEMPERATURA: 28°C
P.to di Rugiada: 9°C
Umidità: 30%
Pressione: 1012 hPa
Nuvole: Qualche nuvola
Visibilità: 10 km
Dettagli Nuvole: Qualche nuvola 1219 m
2017/08/11 15:50 LIPK 111550Z 26012KT 9999 FEW040 28/09 Q1012
 
LIRS - Grosseto (5 m.)
Dati ricevuti: 20/08/2017 08:55
Qualche nuvola
Qualche nuvola
 Vento da NE
Vento: NE 6 km/h
TEMPERATURA: 23°C
P.to di Rugiada: 20°C
Umidità: 83%
Pressione: 1014 hPa
Nuvole: Qualche nuvola
Visibilità: 10 km
Dettagli Nuvole: Qualche nuvola 914 m
2017/08/20 06:55 LIRS 200655Z 05003KT 9999 FEW030 23/20 Q1014
 
LIRP - Pisa S.Giusto (2 m.)
Dati ricevuti: 20/08/2017 09:15
Qualche nuvola
Qualche nuvola
 Vento da SSE
Vento: SSE 6 km/h
TEMPERATURA: 22°C
P.to di Rugiada: 19°C
Umidità: 83%
Pressione: 1015 hPa
Nuvole: Qualche nuvola
Visibilità: 10 km
Dettagli Nuvole: Qualche nuvola 305 m
2017/08/20 07:15 LIRP 200715Z 15003KT 9999 FEW010 22/19 Q1015 NOSIG